Česky Dansk Deutsch English Español Suomi Français Magyar Italiano Nederlands norsk Polski Português svenska Türkçe

 

Het Weer

Mariscal Estigarribia (Paraguay)

21:00, 13 mei 2016 (GMT)

NWNNE
WE
SWSSE
Home            
Mariscal Estigarribia Nueva Asuncion Las Lomitas Villamontes Yacuiba Rivadavia Tartagal Aerodrome Concepcion Camiri Oran Aerodrome Robore Tarija Puerto Suarez Corumba San Jose De Chiquitos Asuncion / Aeropuerto Ponta Pora Intl La Quiaca Observatorio Formosa Aerodrome Jujuy Aerodrome Presidencia Roque Saenz Pena Aerodrome Santa Cruz / El Trompillo Viru-Viru

Om een weerknop op uw website of weblog te plaatsen, copieer onderstaande code en plak die in uw pagina. In het eerste vakje staat HTML-code, in het tweede vakje UBB-code.


Add to Google

Details

Visibility:Greater than 10000 m, 10 km, 32800 ft, 6.2 miles
Clouds:Geschlossene Wolkendecke at 1000 ft, 305 m
Temperature:20°C, 68°F
Dew-point:17°C, 63°F
Atmospheric pressure:1016 hPa, 762.1 mmHg, 30.00 inHg, 1.003 atm
Relative humidity:82.9 %
METAR:SGME 132100Z 00000KT 9999 OVC010 20/17 Q1016

Snelkoppelingen

Actuele weersinformatie van de hele wereld. Voeg locaties toe met het plus (+) symbool. Deze snelkoppelingen kunnen worden toegevoegd aan Google.

Lid van de Technetium groep

website free tracking
StatCounter NetStat W3C Validator

28-11-2020 11:04:54
astro.technetium.be money.technetium.be phote.technetium.be tafeltennistafel.technetium.be www.ligfiets.net